sensor_id;sensor_type;location;lat;lon;timestamp;temperature;humidity
35565;DHT22;21668;44.784;10.336;2022-07-04T00:01:26;27.30;90.80
35565;DHT22;21668;44.784;10.336;2022-07-04T00:04:29;27.20;91.00
35565;DHT22;21668;44.784;10.336;2022-07-04T00:07:33;27.20;91.20
35565;DHT22;21668;44.784;10.336;2022-07-04T00:10:36;27.20;91.30
35565;DHT22;21668;44.784;10.336;2022-07-04T00:13:40;27.10;91.10
35565;DHT22;21668;44.784;10.336;2022-07-04T00:16:44;27.10;91.20
35565;DHT22;21668;44.784;10.336;2022-07-04T00:19:47;27.20;91.00
35565;DHT22;21668;44.784;10.336;2022-07-04T00:22:50;27.20;90.80
35565;DHT22;21668;44.784;10.336;2022-07-04T00:25:54;27.20;91.00
35565;DHT22;21668;44.784;10.336;2022-07-04T00:28:58;27.00;91.20
35565;DHT22;21668;44.784;10.336;2022-07-04T00:32:02;27.00;91.50
35565;DHT22;21668;44.784;10.336;2022-07-04T00:35:06;26.90;91.50
35565;DHT22;21668;44.784;10.336;2022-07-04T00:38:09;26.80;91.30
35565;DHT22;21668;44.784;10.336;2022-07-04T00:41:13;26.80;91.30
35565;DHT22;21668;44.784;10.336;2022-07-04T00:44:20;26.80;91.30
35565;DHT22;21668;44.784;10.336;2022-07-04T00:47:24;26.70;91.50
35565;DHT22;21668;44.784;10.336;2022-07-04T00:50:27;26.70;91.50
35565;DHT22;21668;44.784;10.336;2022-07-04T00:53:31;27.30;91.60
35565;DHT22;21668;44.784;10.336;2022-07-04T00:56:38;26.80;91.60
35565;DHT22;21668;44.784;10.336;2022-07-04T00:59:42;26.60;91.80
35565;DHT22;21668;44.784;10.336;2022-07-04T01:02:46;26.50;92.00
35565;DHT22;21668;44.784;10.336;2022-07-04T01:05:49;26.40;92.30
35565;DHT22;21668;44.784;10.336;2022-07-04T01:08:54;26.40;92.20
35565;DHT22;21668;44.784;10.336;2022-07-04T01:11:59;26.40;92.10
35565;DHT22;21668;44.784;10.336;2022-07-04T01:15:03;26.30;92.20
35565;DHT22;21668;44.784;10.336;2022-07-04T01:18:07;26.40;92.50
35565;DHT22;21668;44.784;10.336;2022-07-04T01:21:11;26.40;92.50
35565;DHT22;21668;44.784;10.336;2022-07-04T01:24:14;26.40;92.50
35565;DHT22;21668;44.784;10.336;2022-07-04T01:27:18;26.20;92.70
35565;DHT22;21668;44.784;10.336;2022-07-04T01:30:22;26.20;92.80
35565;DHT22;21668;44.784;10.336;2022-07-04T01:33:25;26.10;92.80
35565;DHT22;21668;44.784;10.336;2022-07-04T01:36:29;26.20;92.90
35565;DHT22;21668;44.784;10.336;2022-07-04T01:39:33;26.10;93.00
35565;DHT22;21668;44.784;10.336;2022-07-04T01:42:37;26.10;91.30
35565;DHT22;21668;44.784;10.336;2022-07-04T01:45:40;26.10;90.80
35565;DHT22;21668;44.784;10.336;2022-07-04T01:48:44;25.60;90.20
35565;DHT22;21668;44.784;10.336;2022-07-04T01:51:49;26.10;89.50
35565;DHT22;21668;44.784;10.336;2022-07-04T01:54:53;26.10;89.40
35565;DHT22;21668;44.784;10.336;2022-07-04T01:57:57;26.10;89.00
35565;DHT22;21668;44.784;10.336;2022-07-04T02:01:01;26.10;88.90
35565;DHT22;21668;44.784;10.336;2022-07-04T02:04:23;26.00;88.70
35565;DHT22;21668;44.784;10.336;2022-07-04T02:07:27;25.90;88.80
35565;DHT22;21668;44.784;10.336;2022-07-04T02:10:30;25.90;88.60
35565;DHT22;21668;44.784;10.336;2022-07-04T02:13:33;25.90;88.40
35565;DHT22;21668;44.784;10.336;2022-07-04T02:16:38;25.90;88.70
35565;DHT22;21668;44.784;10.336;2022-07-04T02:19:42;25.90;88.70
35565;DHT22;21668;44.784;10.336;2022-07-04T02:22:45;26.00;88.90
35565;DHT22;21668;44.784;10.336;2022-07-04T02:25:48;26.00;89.10
35565;DHT22;21668;44.784;10.336;2022-07-04T02:28:52;26.00;89.00
35565;DHT22;21668;44.784;10.336;2022-07-04T02:31:56;25.90;89.40
35565;DHT22;21668;44.784;10.336;2022-07-04T02:34:59;25.70;89.70
35565;DHT22;21668;44.784;10.336;2022-07-04T02:38:02;25.70;90.00
35565;DHT22;21668;44.784;10.336;2022-07-04T02:41:06;25.60;90.00
35565;DHT22;21668;44.784;10.336;2022-07-04T02:44:09;25.50;89.80
35565;DHT22;21668;44.784;10.336;2022-07-04T02:47:14;25.40;89.90
35565;DHT22;21668;44.784;10.336;2022-07-04T02:50:17;25.40;89.90
35565;DHT22;21668;44.784;10.336;2022-07-04T02:53:21;25.30;90.00
35565;DHT22;21668;44.784;10.336;2022-07-04T02:56:25;25.40;90.00
35565;DHT22;21668;44.784;10.336;2022-07-04T02:59:29;25.30;90.10
35565;DHT22;21668;44.784;10.336;2022-07-04T03:02:32;25.30;90.20
35565;DHT22;21668;44.784;10.336;2022-07-04T03:05:36;25.20;90.30
35565;DHT22;21668;44.784;10.336;2022-07-04T03:08:40;25.20;90.30
35565;DHT22;21668;44.784;10.336;2022-07-04T03:11:44;25.30;90.20
35565;DHT22;21668;44.784;10.336;2022-07-04T03:14:48;25.30;90.00
35565;DHT22;21668;44.784;10.336;2022-07-04T03:17:51;25.20;90.00
35565;DHT22;21668;44.784;10.336;2022-07-04T03:20:54;25.10;90.10
35565;DHT22;21668;44.784;10.336;2022-07-04T03:23:58;25.20;90.20
35565;DHT22;21668;44.784;10.336;2022-07-04T03:27:01;25.10;90.00
35565;DHT22;21668;44.784;10.336;2022-07-04T03:30:05;25.00;90.10
35565;DHT22;21668;44.784;10.336;2022-07-04T03:33:09;25.00;90.10
35565;DHT22;21668;44.784;10.336;2022-07-04T03:36:13;25.00;90.60
35565;DHT22;21668;44.784;10.336;2022-07-04T03:39:17;24.90;90.60
35565;DHT22;21668;44.784;10.336;2022-07-04T03:42:20;25.00;90.90
35565;DHT22;21668;44.784;10.336;2022-07-04T03:45:23;25.00;91.20
35565;DHT22;21668;44.784;10.336;2022-07-04T03:48:27;25.00;91.40
35565;DHT22;21668;44.784;10.336;2022-07-04T03:51:31;24.90;91.10
35565;DHT22;21668;44.784;10.336;2022-07-04T03:54:34;24.80;91.10
35565;DHT22;21668;44.784;10.336;2022-07-04T03:57:38;24.70;91.50
35565;DHT22;21668;44.784;10.336;2022-07-04T04:00:41;24.70;91.30
35565;DHT22;21668;44.784;10.336;2022-07-04T04:03:45;24.80;91.20
35565;DHT22;21668;44.784;10.336;2022-07-04T04:07:07;24.90;90.50
35565;DHT22;21668;44.784;10.336;2022-07-04T04:10:10;24.80;90.90
35565;DHT22;21668;44.784;10.336;2022-07-04T04:13:14;24.90;90.80
35565;DHT22;21668;44.784;10.336;2022-07-04T04:16:18;24.90;90.90
35565;DHT22;21668;44.784;10.336;2022-07-04T04:19:21;24.90;91.00
35565;DHT22;21668;44.784;10.336;2022-07-04T04:22:27;25.00;91.00
35565;DHT22;21668;44.784;10.336;2022-07-04T04:25:30;25.10;90.90
35565;DHT22;21668;44.784;10.336;2022-07-04T04:28:34;25.10;90.90
35565;DHT22;21668;44.784;10.336;2022-07-04T04:31:38;25.10;90.80
35565;DHT22;21668;44.784;10.336;2022-07-04T04:34:41;25.20;90.80
35565;DHT22;21668;44.784;10.336;2022-07-04T04:37:44;25.30;90.40
35565;DHT22;21668;44.784;10.336;2022-07-04T04:40:48;25.40;90.00
35565;DHT22;21668;44.784;10.336;2022-07-04T04:43:51;25.50;90.30
35565;DHT22;21668;44.784;10.336;2022-07-04T04:46:55;25.60;90.40
35565;DHT22;21668;44.784;10.336;2022-07-04T04:49:58;25.70;90.20
35565;DHT22;21668;44.784;10.336;2022-07-04T04:53:03;25.60;90.30
35565;DHT22;21668;44.784;10.336;2022-07-04T04:56:07;25.70;90.10
35565;DHT22;21668;44.784;10.336;2022-07-04T04:59:10;25.70;90.50
35565;DHT22;21668;44.784;10.336;2022-07-04T05:02:13;25.80;90.10
35565;DHT22;21668;44.784;10.336;2022-07-04T05:05:17;25.80;90.40
35565;DHT22;21668;44.784;10.336;2022-07-04T05:08:20;25.80;90.20
35565;DHT22;21668;44.784;10.336;2022-07-04T05:11:25;25.90;90.60
35565;DHT22;21668;44.784;10.336;2022-07-04T05:14:30;25.90;90.60
35565;DHT22;21668;44.784;10.336;2022-07-04T05:17:33;26.00;90.30
35565;DHT22;21668;44.784;10.336;2022-07-04T05:20:37;26.20;90.10
35565;DHT22;21668;44.784;10.336;2022-07-04T05:23:41;26.30;89.70
35565;DHT22;21668;44.784;10.336;2022-07-04T05:26:44;26.40;87.40
35565;DHT22;21668;44.784;10.336;2022-07-04T05:29:48;26.60;85.20
35565;DHT22;21668;44.784;10.336;2022-07-04T05:32:52;26.80;83.80
35565;DHT22;21668;44.784;10.336;2022-07-04T05:35:56;26.80;82.20
35565;DHT22;21668;44.784;10.336;2022-07-04T05:39:00;26.90;82.30
35565;DHT22;21668;44.784;10.336;2022-07-04T05:42:04;27.20;81.50
35565;DHT22;21668;44.784;10.336;2022-07-04T05:45:15;28.40;80.00
35565;DHT22;21668;44.784;10.336;2022-07-04T05:48:20;30.00;76.80
35565;DHT22;21668;44.784;10.336;2022-07-04T05:51:24;31.30;74.80
35565;DHT22;21668;44.784;10.336;2022-07-04T05:54:31;32.30;73.10
35565;DHT22;21668;44.784;10.336;2022-07-04T05:57:35;33.40;72.20
35565;DHT22;21668;44.784;10.336;2022-07-04T06:00:40;34.30;71.20
35565;DHT22;21668;44.784;10.336;2022-07-04T06:03:44;34.50;70.60
35565;DHT22;21668;44.784;10.336;2022-07-04T06:06:51;35.40;68.00
35565;DHT22;21668;44.784;10.336;2022-07-04T06:09:58;35.20;67.10
35565;DHT22;21668;44.784;10.336;2022-07-04T06:13:05;36.00;66.60
35565;DHT22;21668;44.784;10.336;2022-07-04T06:16:14;35.80;66.50
35565;DHT22;21668;44.784;10.336;2022-07-04T06:19:17;35.60;66.70
35565;DHT22;21668;44.784;10.336;2022-07-04T06:22:21;35.40;66.20
35565;DHT22;21668;44.784;10.336;2022-07-04T06:25:30;35.60;66.70
35565;DHT22;21668;44.784;10.336;2022-07-04T06:28:37;36.30;66.50
35565;DHT22;21668;44.784;10.336;2022-07-04T06:31:41;36.20;67.50
35565;DHT22;21668;44.784;10.336;2022-07-04T06:34:51;36.90;67.10
35565;DHT22;21668;44.784;10.336;2022-07-04T06:38:31;37.30;67.00
35565;DHT22;21668;44.784;10.336;2022-07-04T06:41:58;36.30;67.60
35565;DHT22;21668;44.784;10.336;2022-07-04T06:45:05;34.60;70.30
35565;DHT22;21668;44.784;10.336;2022-07-04T06:48:09;33.50;72.90
35565;DHT22;21668;44.784;10.336;2022-07-04T06:51:13;32.80;73.90
35565;DHT22;21668;44.784;10.336;2022-07-04T06:54:17;32.50;75.00
35565;DHT22;21668;44.784;10.336;2022-07-04T06:57:33;32.40;75.30
35565;DHT22;21668;44.784;10.336;2022-07-04T07:00:38;32.50;75.10
35565;DHT22;21668;44.784;10.336;2022-07-04T07:03:42;32.20;76.20
35565;DHT22;21668;44.784;10.336;2022-07-04T07:06:46;31.80;77.50
35565;DHT22;21668;44.784;10.336;2022-07-04T07:09:52;31.40;78.90
35565;DHT22;21668;44.784;10.336;2022-07-04T07:12:58;31.10;79.30
35565;DHT22;21668;44.784;10.336;2022-07-04T07:16:02;31.00;79.30
35565;DHT22;21668;44.784;10.336;2022-07-04T07:19:06;31.00;79.70
35565;DHT22;21668;44.784;10.336;2022-07-04T07:22:19;31.70;78.90
35565;DHT22;21668;44.784;10.336;2022-07-04T07:25:24;31.90;78.50
35565;DHT22;21668;44.784;10.336;2022-07-04T07:28:28;32.10;78.30
35565;DHT22;21668;44.784;10.336;2022-07-04T07:31:32;31.90;78.60
35565;DHT22;21668;44.784;10.336;2022-07-04T07:34:37;33.00;80.20
35565;DHT22;21668;44.784;10.336;2022-07-04T07:37:44;32.10;79.20
35565;DHT22;21668;44.784;10.336;2022-07-04T07:40:48;33.40;76.40
35565;DHT22;21668;44.784;10.336;2022-07-04T07:43:55;34.70;74.60
35565;DHT22;21668;44.784;10.336;2022-07-04T07:47:07;35.70;72.90
35565;DHT22;21668;44.784;10.336;2022-07-04T07:50:12;36.30;71.70
35565;DHT22;21668;44.784;10.336;2022-07-04T07:53:27;36.70;70.40
35565;DHT22;21668;44.784;10.336;2022-07-04T08:00:31;35.20;71.50
35565;DHT22;21668;44.784;10.336;2022-07-04T08:04:09;34.10;73.40
35565;DHT22;21668;44.784;10.336;2022-07-04T08:21:40;33.50;74.70
35565;DHT22;21668;44.784;10.336;2022-07-04T08:24:44;34.20;73.50
35565;DHT22;21668;44.784;10.336;2022-07-04T08:27:48;34.00;74.10
35565;DHT22;21668;44.784;10.336;2022-07-04T08:31:01;34.00;74.40
35565;DHT22;21668;44.784;10.336;2022-07-04T08:34:05;33.70;75.00
35565;DHT22;21668;44.784;10.336;2022-07-04T08:37:08;34.00;73.90
35565;DHT22;21668;44.784;10.336;2022-07-04T08:40:13;34.00;74.10
35565;DHT22;21668;44.784;10.336;2022-07-04T08:43:22;33.70;74.80
35565;DHT22;21668;44.784;10.336;2022-07-04T08:46:27;33.80;74.90
35565;DHT22;21668;44.784;10.336;2022-07-04T08:50:22;33.60;74.90
35565;DHT22;21668;44.784;10.336;2022-07-04T08:53:30;33.20;75.90
35565;DHT22;21668;44.784;10.336;2022-07-04T08:56:37;32.80;76.80
35565;DHT22;21668;44.784;10.336;2022-07-04T09:00:05;32.40;77.70
35565;DHT22;21668;44.784;10.336;2022-07-04T09:03:10;32.30;78.80
35565;DHT22;21668;44.784;10.336;2022-07-04T09:06:14;32.20;79.40
35565;DHT22;21668;44.784;10.336;2022-07-04T09:09:31;31.90;79.50
35565;DHT22;21668;44.784;10.336;2022-07-04T09:16:16;31.90;80.50
35565;DHT22;21668;44.784;10.336;2022-07-04T09:26:28;32.10;80.80
35565;DHT22;21668;44.784;10.336;2022-07-04T09:29:32;32.20;80.80
35565;DHT22;21668;44.784;10.336;2022-07-04T09:35:54;32.40;80.30
35565;DHT22;21668;44.784;10.336;2022-07-04T09:39:47;32.30;80.20
35565;DHT22;21668;44.784;10.336;2022-07-04T09:44:19;32.10;80.90
35565;DHT22;21668;44.784;10.336;2022-07-04T09:47:27;31.80;81.40
35565;DHT22;21668;44.784;10.336;2022-07-04T10:02:55;31.70;81.60
35565;DHT22;21668;44.784;10.336;2022-07-04T10:06:14;30.50;81.00
35565;DHT22;21668;44.784;10.336;2022-07-04T10:09:36;32.00;81.80
35565;DHT22;21668;44.784;10.336;2022-07-04T10:12:43;32.30;81.00
35565;DHT22;21668;44.784;10.336;2022-07-04T10:15:50;32.40;80.50
35565;DHT22;21668;44.784;10.336;2022-07-04T10:19:03;32.50;80.90
35565;DHT22;21668;44.784;10.336;2022-07-04T10:31:56;32.60;81.60
35565;DHT22;21668;44.784;10.336;2022-07-04T10:35:00;32.80;80.70
35565;DHT22;21668;44.784;10.336;2022-07-04T10:42:58;33.00;80.80
35565;DHT22;21668;44.784;10.336;2022-07-04T10:46:52;33.30;79.30
35565;DHT22;21668;44.784;10.336;2022-07-04T10:54:45;33.30;78.60
35565;DHT22;21668;44.784;10.336;2022-07-04T10:57:50;33.00;78.70
35565;DHT22;21668;44.784;10.336;2022-07-04T11:05:07;32.40;79.90
35565;DHT22;21668;44.784;10.336;2022-07-04T11:12:02;32.30;80.50
35565;DHT22;21668;44.784;10.336;2022-07-04T11:15:10;32.60;80.60
35565;DHT22;21668;44.784;10.336;2022-07-04T11:22:23;32.90;79.30
35565;DHT22;21668;44.784;10.336;2022-07-04T11:25:31;33.10;79.40
35565;DHT22;21668;44.784;10.336;2022-07-04T11:28:39;33.20;78.50
35565;DHT22;21668;44.784;10.336;2022-07-04T11:32:15;33.20;78.80
35565;DHT22;21668;44.784;10.336;2022-07-04T11:38:54;33.30;78.40
35565;DHT22;21668;44.784;10.336;2022-07-04T11:46:37;33.60;78.60
35565;DHT22;21668;44.784;10.336;2022-07-04T11:49:49;33.60;77.40
35565;DHT22;21668;44.784;10.336;2022-07-04T11:52:55;33.70;77.30
35565;DHT22;21668;44.784;10.336;2022-07-04T11:56:04;33.80;78.00
35565;DHT22;21668;44.784;10.336;2022-07-04T11:59:52;33.80;77.30
35565;DHT22;21668;44.784;10.336;2022-07-04T12:06:36;34.10;76.60
35565;DHT22;21668;44.784;10.336;2022-07-04T12:09:41;33.90;76.60
35565;DHT22;21668;44.784;10.336;2022-07-04T12:13:13;33.80;77.40
35565;DHT22;21668;44.784;10.336;2022-07-04T12:16:24;33.80;77.20
35565;DHT22;21668;44.784;10.336;2022-07-04T12:19:35;34.00;77.40
35565;DHT22;21668;44.784;10.336;2022-07-04T12:23:14;34.00;76.30
35565;DHT22;21668;44.784;10.336;2022-07-04T12:26:20;34.10;76.40
35565;DHT22;21668;44.784;10.336;2022-07-04T12:29:27;34.20;75.30
35565;DHT22;21668;44.784;10.336;2022-07-04T12:32:44;34.00;75.90
35565;DHT22;21668;44.784;10.336;2022-07-04T12:38:56;34.10;75.90
35565;DHT22;21668;44.784;10.336;2022-07-04T12:49:24;34.30;74.60
35565;DHT22;21668;44.784;10.336;2022-07-04T12:52:38;33.40;72.80
35565;DHT22;21668;44.784;10.336;2022-07-04T12:59:24;34.90;74.50
35565;DHT22;21668;44.784;10.336;2022-07-04T13:02:28;34.90;74.40
35565;DHT22;21668;44.784;10.336;2022-07-04T13:05:36;34.70;73.80
35565;DHT22;21668;44.784;10.336;2022-07-04T13:08:40;34.80;74.70
35565;DHT22;21668;44.784;10.336;2022-07-04T13:16:17;34.50;73.60
35565;DHT22;21668;44.784;10.336;2022-07-04T13:19:21;34.40;75.40
35565;DHT22;21668;44.784;10.336;2022-07-04T13:22:25;34.70;75.70
35565;DHT22;21668;44.784;10.336;2022-07-04T13:28:59;35.00;75.30
35565;DHT22;21668;44.784;10.336;2022-07-04T13:32:04;35.10;75.20
35565;DHT22;21668;44.784;10.336;2022-07-04T13:35:09;35.10;74.80
35565;DHT22;21668;44.784;10.336;2022-07-04T13:38:13;35.20;74.60
35565;DHT22;21668;44.784;10.336;2022-07-04T13:41:17;35.30;74.90
35565;DHT22;21668;44.784;10.336;2022-07-04T13:44:21;35.30;74.40
35565;DHT22;21668;44.784;10.336;2022-07-04T13:47:25;35.30;73.80
35565;DHT22;21668;44.784;10.336;2022-07-04T13:50:29;35.20;74.10
35565;DHT22;21668;44.784;10.336;2022-07-04T13:53:33;35.30;73.90
35565;DHT22;21668;44.784;10.336;2022-07-04T13:56:39;35.30;73.40
35565;DHT22;21668;44.784;10.336;2022-07-04T13:59:44;35.50;73.20
35565;DHT22;21668;44.784;10.336;2022-07-04T14:02:48;35.40;73.40
35565;DHT22;21668;44.784;10.336;2022-07-04T14:05:52;35.30;73.80
35565;DHT22;21668;44.784;10.336;2022-07-04T14:08:56;35.40;72.90
35565;DHT22;21668;44.784;10.336;2022-07-04T14:12:00;35.50;73.20
35565;DHT22;21668;44.784;10.336;2022-07-04T14:15:04;35.50;73.10
35565;DHT22;21668;44.784;10.336;2022-07-04T14:18:11;35.60;73.70
35565;DHT22;21668;44.784;10.336;2022-07-04T14:21:17;35.60;72.70
35565;DHT22;21668;44.784;10.336;2022-07-04T14:24:21;35.50;73.30
35565;DHT22;21668;44.784;10.336;2022-07-04T14:27:39;35.60;72.50
35565;DHT22;21668;44.784;10.336;2022-07-04T14:30:47;35.60;73.20
35565;DHT22;21668;44.784;10.336;2022-07-04T14:33:51;35.50;73.30
35565;DHT22;21668;44.784;10.336;2022-07-04T14:36:55;35.40;73.20
35565;DHT22;21668;44.784;10.336;2022-07-04T14:39:59;35.50;73.70
35565;DHT22;21668;44.784;10.336;2022-07-04T14:43:02;35.50;72.90
35565;DHT22;21668;44.784;10.336;2022-07-04T14:46:06;35.40;73.20
35565;DHT22;21668;44.784;10.336;2022-07-04T14:49:10;35.30;72.90
35565;DHT22;21668;44.784;10.336;2022-07-04T14:52:14;35.30;73.00
35565;DHT22;21668;44.784;10.336;2022-07-04T14:55:17;35.30;73.30
35565;DHT22;21668;44.784;10.336;2022-07-04T14:58:22;35.40;72.80
35565;DHT22;21668;44.784;10.336;2022-07-04T15:01:25;35.80;74.10
35565;DHT22;21668;44.784;10.336;2022-07-04T15:04:30;35.30;73.30
35565;DHT22;21668;44.784;10.336;2022-07-04T15:07:34;35.40;73.00
35565;DHT22;21668;44.784;10.336;2022-07-04T15:10:38;35.50;72.50
35565;DHT22;21668;44.784;10.336;2022-07-04T15:13:42;35.50;72.60
35565;DHT22;21668;44.784;10.336;2022-07-04T15:16:46;35.50;72.80
35565;DHT22;21668;44.784;10.336;2022-07-04T15:19:50;35.40;72.70
35565;DHT22;21668;44.784;10.336;2022-07-04T15:23:12;35.30;73.30
35565;DHT22;21668;44.784;10.336;2022-07-04T15:26:35;36.10;73.20
35565;DHT22;21668;44.784;10.336;2022-07-04T15:29:38;35.60;72.40
35565;DHT22;21668;44.784;10.336;2022-07-04T15:32:41;35.70;72.20
35565;DHT22;21668;44.784;10.336;2022-07-04T15:35:44;35.50;72.80
35565;DHT22;21668;44.784;10.336;2022-07-04T15:38:48;35.10;72.60
35565;DHT22;21668;44.784;10.336;2022-07-04T15:41:51;34.80;72.80
35565;DHT22;21668;44.784;10.336;2022-07-04T15:48:21;34.50;73.50
35565;DHT22;21668;44.784;10.336;2022-07-04T15:51:29;34.40;73.80
35565;DHT22;21668;44.784;10.336;2022-07-04T15:54:33;34.30;74.10
35565;DHT22;21668;44.784;10.336;2022-07-04T15:57:37;34.40;74.50
35565;DHT22;21668;44.784;10.336;2022-07-04T16:00:46;34.40;74.20
35565;DHT22;21668;44.784;10.336;2022-07-04T16:03:54;35.60;75.20
35565;DHT22;21668;44.784;10.336;2022-07-04T16:07:01;34.30;74.30
35565;DHT22;21668;44.784;10.336;2022-07-04T16:10:09;34.10;74.70
35565;DHT22;21668;44.784;10.336;2022-07-04T16:17:28;33.90;74.70
35565;DHT22;21668;44.784;10.336;2022-07-04T16:20:37;33.80;74.90
35565;DHT22;21668;44.784;10.336;2022-07-04T16:23:52;33.60;75.50
35565;DHT22;21668;44.784;10.336;2022-07-04T16:26:56;33.50;75.80
35565;DHT22;21668;44.784;10.336;2022-07-04T16:30:22;33.30;76.10
35565;DHT22;21668;44.784;10.336;2022-07-04T16:33:26;33.20;76.90
35565;DHT22;21668;44.784;10.336;2022-07-04T16:36:34;33.10;77.20
35565;DHT22;21668;44.784;10.336;2022-07-04T16:39:41;33.00;77.70
35565;DHT22;21668;44.784;10.336;2022-07-04T16:42:45;33.20;77.70
35565;DHT22;21668;44.784;10.336;2022-07-04T16:45:51;33.20;78.50
35565;DHT22;21668;44.784;10.336;2022-07-04T16:48:59;33.10;79.00
35565;DHT22;21668;44.784;10.336;2022-07-04T16:52:04;32.90;78.40
35565;DHT22;21668;44.784;10.336;2022-07-04T16:55:17;32.90;78.30
35565;DHT22;21668;44.784;10.336;2022-07-04T16:58:42;32.90;78.00
35565;DHT22;21668;44.784;10.336;2022-07-04T17:02:01;32.80;77.00
35565;DHT22;21668;44.784;10.336;2022-07-04T17:05:10;32.00;75.80
35565;DHT22;21668;44.784;10.336;2022-07-04T17:08:14;30.90;78.40
35565;DHT22;21668;44.784;10.336;2022-07-04T17:11:18;29.40;87.10
35565;DHT22;21668;44.784;10.336;2022-07-04T17:14:21;28.60;89.60
35565;DHT22;21668;44.784;10.336;2022-07-04T17:17:26;28.00;90.80
35565;DHT22;21668;44.784;10.336;2022-07-04T17:20:30;27.60;92.10
35565;DHT22;21668;44.784;10.336;2022-07-04T17:23:33;27.30;92.50
35565;DHT22;21668;44.784;10.336;2022-07-04T17:26:37;27.00;94.10
35565;DHT22;21668;44.784;10.336;2022-07-04T17:29:40;26.80;94.30
35565;DHT22;21668;44.784;10.336;2022-07-04T17:32:44;25.50;93.70
35565;DHT22;21668;44.784;10.336;2022-07-04T17:35:47;26.60;94.10
35565;DHT22;21668;44.784;10.336;2022-07-04T17:38:51;26.50;93.70
35565;DHT22;21668;44.784;10.336;2022-07-04T17:41:55;26.30;95.00
35565;DHT22;21668;44.784;10.336;2022-07-04T17:44:59;26.10;94.70
35565;DHT22;21668;44.784;10.336;2022-07-04T17:48:02;25.90;94.00
35565;DHT22;21668;44.784;10.336;2022-07-04T17:51:06;25.70;96.10
35565;DHT22;21668;44.784;10.336;2022-07-04T17:54:11;25.40;95.90
35565;DHT22;21668;44.784;10.336;2022-07-04T17:57:15;25.10;96.60
35565;DHT22;21668;44.784;10.336;2022-07-04T18:00:19;24.70;98.00
35565;DHT22;21668;44.784;10.336;2022-07-04T18:03:23;24.30;98.80
35565;DHT22;21668;44.784;10.336;2022-07-04T18:06:27;24.10;99.30
35565;DHT22;21668;44.784;10.336;2022-07-04T18:09:31;24.10;99.90
35565;DHT22;21668;44.784;10.336;2022-07-04T18:12:34;24.20;99.90
35565;DHT22;21668;44.784;10.336;2022-07-04T18:15:38;24.40;99.90
35565;DHT22;21668;44.784;10.336;2022-07-04T18:18:42;24.50;99.90
35565;DHT22;21668;44.784;10.336;2022-07-04T18:21:45;24.40;99.90
35565;DHT22;21668;44.784;10.336;2022-07-04T18:24:48;24.20;99.90
35565;DHT22;21668;44.784;10.336;2022-07-04T18:27:52;23.90;99.90
35565;DHT22;21668;44.784;10.336;2022-07-04T18:31:05;23.50;99.90
35565;DHT22;21668;44.784;10.336;2022-07-04T18:34:09;23.40;99.90
35565;DHT22;21668;44.784;10.336;2022-07-04T18:37:13;23.20;99.90
35565;DHT22;21668;44.784;10.336;2022-07-04T18:40:17;23.30;99.90
35565;DHT22;21668;44.784;10.336;2022-07-04T18:43:39;23.60;99.90
35565;DHT22;21668;44.784;10.336;2022-07-04T18:46:43;24.10;99.90
35565;DHT22;21668;44.784;10.336;2022-07-04T18:49:47;24.50;99.90
35565;DHT22;21668;44.784;10.336;2022-07-04T18:52:51;24.80;99.90
35565;DHT22;21668;44.784;10.336;2022-07-04T18:55:55;25.00;99.90
35565;DHT22;21668;44.784;10.336;2022-07-04T18:58:59;25.20;99.90
35565;DHT22;21668;44.784;10.336;2022-07-04T19:02:03;25.40;99.80
35565;DHT22;21668;44.784;10.336;2022-07-04T19:05:07;25.50;99.50
35565;DHT22;21668;44.784;10.336;2022-07-04T19:08:11;25.50;99.00
35565;DHT22;21668;44.784;10.336;2022-07-04T19:11:18;25.50;99.00
35565;DHT22;21668;44.784;10.336;2022-07-04T19:14:22;25.50;98.60
35565;DHT22;21668;44.784;10.336;2022-07-04T19:17:26;25.50;98.10
35565;DHT22;21668;44.784;10.336;2022-07-04T19:20:33;25.50;97.40
35565;DHT22;21668;44.784;10.336;2022-07-04T19:23:37;25.60;96.60
35565;DHT22;21668;44.784;10.336;2022-07-04T19:26:42;25.60;96.70
35565;DHT22;21668;44.784;10.336;2022-07-04T19:29:52;25.60;96.00
35565;DHT22;21668;44.784;10.336;2022-07-04T19:32:56;25.70;95.50
35565;DHT22;21668;44.784;10.336;2022-07-04T19:35:59;25.80;95.10
35565;DHT22;21668;44.784;10.336;2022-07-04T19:39:04;25.80;95.00
35565;DHT22;21668;44.784;10.336;2022-07-04T19:42:08;25.90;94.80
35565;DHT22;21668;44.784;10.336;2022-07-04T19:45:11;25.90;94.90
35565;DHT22;21668;44.784;10.336;2022-07-04T19:48:15;25.90;95.40
35565;DHT22;21668;44.784;10.336;2022-07-04T19:51:19;25.80;96.00
35565;DHT22;21668;44.784;10.336;2022-07-04T19:54:23;25.60;96.50
35565;DHT22;21668;44.784;10.336;2022-07-04T19:57:27;25.50;97.00
35565;DHT22;21668;44.784;10.336;2022-07-04T20:00:31;25.40;97.50
35565;DHT22;21668;44.784;10.336;2022-07-04T20:03:35;25.30;97.80
35565;DHT22;21668;44.784;10.336;2022-07-04T20:06:39;25.20;98.30
35565;DHT22;21668;44.784;10.336;2022-07-04T20:09:43;25.10;98.50
35565;DHT22;21668;44.784;10.336;2022-07-04T20:12:46;25.00;98.90
35565;DHT22;21668;44.784;10.336;2022-07-04T20:15:49;25.00;99.20
35565;DHT22;21668;44.784;10.336;2022-07-04T20:18:53;24.90;99.70
35565;DHT22;21668;44.784;10.336;2022-07-04T20:21:57;24.80;99.90
35565;DHT22;21668;44.784;10.336;2022-07-04T20:25:01;24.80;99.90
35565;DHT22;21668;44.784;10.336;2022-07-04T20:28:05;24.80;99.90
35565;DHT22;21668;44.784;10.336;2022-07-04T20:31:09;24.70;99.90
35565;DHT22;21668;44.784;10.336;2022-07-04T20:34:12;24.70;99.90
35565;DHT22;21668;44.784;10.336;2022-07-04T20:37:16;24.60;99.90
35565;DHT22;21668;44.784;10.336;2022-07-04T20:40:19;24.50;99.90
35565;DHT22;21668;44.784;10.336;2022-07-04T20:43:23;24.40;99.90
35565;DHT22;21668;44.784;10.336;2022-07-04T20:46:27;24.40;99.90
35565;DHT22;21668;44.784;10.336;2022-07-04T20:49:31;24.40;99.90
35565;DHT22;21668;44.784;10.336;2022-07-04T20:52:35;24.30;99.90
35565;DHT22;21668;44.784;10.336;2022-07-04T20:55:38;24.30;99.90
35565;DHT22;21668;44.784;10.336;2022-07-04T20:58:41;24.30;99.90
35565;DHT22;21668;44.784;10.336;2022-07-04T21:01:45;24.20;99.90
35565;DHT22;21668;44.784;10.336;2022-07-04T21:04:49;24.20;99.90
35565;DHT22;21668;44.784;10.336;2022-07-04T21:07:55;24.20;99.90
35565;DHT22;21668;44.784;10.336;2022-07-04T21:11:00;24.10;99.90
35565;DHT22;21668;44.784;10.336;2022-07-04T21:14:03;24.10;99.90
35565;DHT22;21668;44.784;10.336;2022-07-04T21:17:07;24.00;99.90